Weather observations for the past three days for
Duluth - Sky Harbor Airport
Imperial (Metric)
Date Time (cdt) Wind (mph) Vis. (mi.) Weather Sky Cond. Temperature (ºF) Relative Humidity Wind Chill (°F) Heat Index (°F) Pressure Precipitation (in)
Air Dwpt 6 hour altimeter (in) sea level (mb) 1 hr 3 hr 6 hr
Max. Min.
03 03:15 NE 9 10.00 Fair CLR 64.4 60.8 88% 29.9 0.0
03 02:55 NE 8 10.00 Fair CLR 64.4 62.6 94% 29.9 0.0
03 02:35 NE 8 10.00 Fair CLR 64.4 62.6 94% 29.91 0.0
03 02:15 NE 6 10.00 Fair CLR 64.4 62.6 94% 29.91 0.0
03 01:55 NE 10 10.00 A Few Clouds FEW100 64.4 62.6 94% 29.91 0.0
03 01:35 NE 8 10.00 Mostly Cloudy BKN110 64.4 62.6 94% 29.91 0.0
03 01:15 NE 8 10.00 Mostly Cloudy BKN120 64.4 62.6 94% 29.92 0.0
03 00:55 E 6 10.00 Mostly Cloudy FEW100 BKN120 66.2 60.8 83% 29.92 0.0
03 00:35 E 5 10.00 Fair CLR 66.2 62.6 88% 29.92 0.0
03 00:15 Calm 10.00 Partly Cloudy FEW050 SCT100 66.2 64.4 94% 29.91 0.0
02 23:55 Vrbl 5 10.00 Partly Cloudy FEW049 SCT100 66.2 64.4 94% 29.91 0.0
02 23:35 NE 7 10.00 A Few Clouds FEW049 FEW055 66.2 62.6 88% 29.91 0.0
02 23:15 NE 9 10.00 Partly Cloudy FEW050 SCT110 66.2 62.6 88% 29.91 0.0
02 22:55 NE 9 10.00 Mostly Cloudy BKN110 66.2 64.4 94% 29.91 0.0
02 22:35 Calm 10.00 Mostly Cloudy BKN110 66.2 64.4 94% 29.9 0.0
02 22:15 NE 8 10.00 Fair CLR 66.2 64.4 94% 29.91 0.0
02 21:55 NE 9 10.00 A Few Clouds FEW049 68 62.6 83% 29.9 0.0
02 21:35 NE 3 10.00 Fair CLR 68 62.6 83% 29.9 0.0
02 21:15 N 5 10.00 Fair CLR 68 62.6 83% 29.89 0.0
02 20:55 N 5 10.00 Fair CLR 68 62.6 83% 29.89 0.0
02 20:35 N 3 10.00 Fair CLR 68 62.6 83% 29.88 0.0
02 20:15 N 6 10.00 Fair CLR 66.2 62.6 88% 29.88 0.0
02 19:55 Calm 10.00 Fair CLR 68 62.6 83% 29.87 0.0
02 19:35 Calm 9.00 Fair CLR 68 64.4 88% 29.88 0.0
02 19:15 Calm 10.00 Fair CLR 68 64.4 88% 29.87 0.0
02 18:55 Calm 10.00 Fair CLR 68 64.4 88% 29.87 0.0
02 18:35 E 5 10.00 Fair CLR 68 64.4 88% 29.87 0.0
02 18:15 E 7 10.00 Fair CLR 68 64.4 88% 29.87 0.0
02 17:55 Vrbl 3 10.00 Fair CLR 69.8 62.6 78% 29.87 0.0
02 17:35 E 5 10.00 Fair CLR 69.8 62.6 78% 29.86 0.0
02 17:15 NE 5 10.00 Fair CLR 68 64.4 88% 29.87 0.0
02 16:55 Vrbl 3 10.00 Fair CLR 69.8 64.4 83% 29.87 0.0
02 16:35 Vrbl 3 10.00 Fair CLR 69.8 64.4 83% 29.87 0.0
02 16:15 NE 8 10.00 NULL NULL 69.8 64.4 83% 29.87 0.0
02 15:35 N 7 10.00 Fair CLR 71.6 64.4 78% 29.87 0.0
02 15:15 Vrbl 6 10.00 Fair CLR 73.4 62.6 69% 29.87 0.0
02 14:55 E 5 10.00 Fair CLR 71.6 62.6 73% 29.88 0.0
02 14:35 E 6 10.00 Fair CLR 71.6 62.6 73% 29.88 0.0
02 14:15 NE 5 10.00 Fair CLR 69.8 64.4 83% 29.89 0.0
02 13:55 NE 7 10.00 Fair CLR 69.8 62.6 78% 29.89 0.0
02 13:35 E 6 10.00 Fair CLR 71.6 62.6 73% 29.89 0.0
02 13:15 E 6 10.00 Fair CLR 69.8 62.6 78% 29.89 0.0
02 12:55 E 7 10.00 NULL NULL 69.8 62.6 78% 29.89 0.0
02 12:35 E 6 10.00 Fair CLR 69.8 62.6 78% 29.9 0.0
02 12:15 NE 6 10.00 Fair CLR 69.8 62.6 78% 29.91 0.0
02 11:55 NE 6 10.00 Fair CLR 69.8 62.6 78% 29.91 0.0
02 11:35 NE 7 10.00 NULL NULL 69.8 62.6 78% 29.91 0.0
02 11:15 NE 6 10.00 NULL NULL 69.8 62.6 78% 29.91 0.0
02 10:55 Calm 10.00 Fair CLR 69.8 60.8 73% 29.91 0.0
02 10:35 Calm 10.00 Fair CLR 69.8 60.8 73% 29.91 0.0
02 10:15 E 5 10.00 Fair CLR 68 60.8 78% 29.9 0.0
02 09:55 E 5 10.00 Fair CLR 68 60.8 78% 29.9 0.0
02 09:35 E 3 10.00 Fair CLR 68 60.8 78% 29.91 0.0
02 09:15 E 3 10.00 Fair CLR 66.2 62.6 88% 29.91 0.0
02 08:55 Calm 10.00 Fair CLR 66.2 62.6 88% 29.92 0.0
02 08:35 Calm 10.00 Fair CLR 66.2 62.6 88% 29.92 0.0
02 08:15 SW 5 10.00 Fair CLR 66.2 62.6 88% 29.92 0.0
02 07:55 SW 5 10.00 Fair CLR 64.4 62.6 94% 29.92 0.0
02 07:35 Calm 10.00 Fair CLR 64.4 62.6 94% 29.92 0.0
02 07:15 S 3 8.00 Fair CLR 62.6 62.6 100% 29.91 0.0
02 06:55 Calm 10.00 Fair CLR 62.6 62.6 100% 29.9 0.0
02 06:35 Calm 10.00 Fair CLR 64.4 62.6 94% 29.9 0.0
02 06:15 Calm 10.00 Fair CLR 64.4 62.6 94% 29.89 0.0
02 05:55 W 3 10.00 Fair CLR 64.4 62.6 94% 29.89 0.0
02 05:35 Calm 10.00 A Few Clouds FEW048 64.4 60.8 88% 29.89 0.0
02 05:15 SW 7 10.00 Fair CLR 64.4 60.8 88% 29.9 0.0
02 04:55 SW 7 10.00 A Few Clouds FEW041 64.4 62.6 94% 29.91 0.0
02 04:35 S 5 10.00 Fair CLR 64.4 62.6 94% 29.9 0.0
02 04:15 S 5 10.00 Fair CLR 66.2 62.6 88% 29.89 0.0
02 03:55 S 3 10.00 Fair CLR 66.2 60.8 83% 29.89 0.0
02 03:35 Calm 10.00 Fair CLR 66.2 62.6 88% 29.88 0.0
02 03:15 S 5 10.00 A Few Clouds FEW120 66.2 62.6 88% 29.88 0.0
02 02:55 S 6 10.00 A Few Clouds FEW120 66.2 62.6 88% 29.89 0.0
02 02:35 S 5 10.00 A Few Clouds FEW120 66.2 62.6 88% 29.89 0.0
02 02:15 Calm 10.00 A Few Clouds FEW120 66.2 60.8 83% 29.89 0.0
02 01:55 SW 6 10.00 A Few Clouds FEW046 66.2 62.6 88% 29.89 0.0
02 01:35 SW 7 10.00 Fair CLR 66.2 62.6 88% 29.89 0.0
02 01:15 SW 5 10.00 Partly Cloudy SCT120 68 62.6 83% 29.89 0.0
02 00:55 S 3 10.00 Partly Cloudy SCT110 68 62.6 83% 29.89 0.0
02 00:35 SW 5 10.00 Mostly Cloudy FEW055 FEW080 BKN110 69.8 60.8 73% 29.9 0.0
02 00:15 W 5 10.00 Mostly Cloudy FEW050 SCT075 BKN095 69.8 60.8 73% 29.9 0.0
01 23:55 SW 3 10.00 Fair CLR 69.8 60.8 73% 29.9 0.0
01 23:35 W 8 10.00 Fair CLR 69.8 60.8 73% 29.9 0.0
01 23:15 W 10 10.00 Fair CLR 69.8 60.8 73% 29.91 0.0
01 22:55 W 8 10.00 Fair CLR 69.8 60.8 73% 29.9 0.0
01 22:35 Calm 10.00 Fair CLR 71.6 60.8 69% 29.9 0.0
01 22:15 W 9 10.00 Fair CLR 71.6 62.6 73% 29.89 0.0
01 21:55 W 7 10.00 Fair CLR 71.6 62.6 73% 29.89 0.0
01 21:35 W 6 10.00 Fair CLR 71.6 62.6 73% 29.89 0.0
01 21:15 W 7 10.00 Fair CLR 71.6 62.6 73% 29.89 0.0
01 20:55 SW 7 10.00 Fair CLR 71.6 60.8 69% 29.89 0.0
01 20:35 SW 7 10.00 Fair CLR 73.4 60.8 65% 29.88 0.0
01 20:15 SW 8 10.00 Fair CLR 73.4 60.8 65% 29.88 0.0
01 19:55 SW 9 10.00 Fair CLR 73.4 60.8 65% 29.87 0.0
01 19:35 SW 9 10.00 Fair CLR 75.2 60.8 61% 77 29.87 0.0
01 19:15 SW 9 10.00 Fair CLR 77 60.8 57% 79 29.86 0.0
01 18:55 SW 12 10.00 Fair CLR 77 60.8 57% 79 29.86 0.0
01 18:35 SW 13 G 18 10.00 Fair CLR 78.8 60.8 54% 80 29.86 0.0
01 18:15 SW 14 10.00 Fair CLR 78.8 60.8 54% 80 29.86 0.0
01 17:55 SW 14 G 21 10.00 Fair CLR 80.6 59 48% 81 29.86 0.0
01 17:35 SW 12 8.00 Fair CLR 80.6 59 48% 81 29.86 0.0
01 17:15 W 10 G 16 10.00 Fair CLR 80.6 57.2 45% 81 29.85 0.0
01 16:55 W 14 10.00 Fair CLR 80.6 55.4 42% 81 29.85 0.0
01 16:35 W 15 10.00 Fair CLR 80.6 57.2 45% 81 29.85 0.0
01 16:15 W 15 10.00 Fair CLR 80.6 57.2 45% 81 29.85 0.0
01 15:55 W 20 10.00 Fair CLR 82.4 55.4 40% 82 29.85 0.0
01 15:35 W 20 10.00 Fair CLR 82.4 55.4 40% 82 29.84 0.0
01 15:15 W 16 G 24 10.00 Fair CLR 84.2 53.6 35% 83 29.85 0.0
01 14:55 W 20 G 26 10.00 Fair CLR 84.2 53.6 35% 83 29.85 0.0
01 14:35 W 17 G 26 10.00 Fair CLR 84.2 55.4 37% 83 29.86 0.0
01 14:15 W 21 G 28 10.00 Fair and Breezy CLR 82.4 55.4 40% 82 29.86 0.0
01 13:55 W 16 G 23 10.00 Fair CLR 82.4 55.4 40% 82 29.86 0.0
01 13:35 W 21 G 28 10.00 Fair and Breezy CLR 82.4 53.6 37% 81 29.87 0.0
01 13:15 W 16 G 22 10.00 NULL NULL 82.4 55.4 40% 82 29.88 0.0
01 12:35 SW 17 10.00 Fair CLR 80.6 57.2 45% 81 29.89 0.0
01 12:15 W 9 G 20 10.00 Fair CLR 80.6 57.2 45% 81 29.9 0.0
01 11:55 W 14 G 21 10.00 Fair CLR 80.6 59 48% 81 29.9 0.0
01 11:35 SW 9 10.00 Fair CLR 78.8 62.6 58% 80 29.9 0.0
01 11:15 SW 7 10.00 Fair CLR 77 60.8 57% 79 29.9 0.0
01 10:55 W 7 10.00 Fair CLR 77 60.8 57% 79 29.91 0.0
01 10:35 SW 10 10.00 Fair CLR 75.2 60.8 61% 77 29.91 0.0
01 10:15 SW 8 10.00 Fair CLR 73.4 60.8 65% 29.92 0.0
01 09:55 SW 9 10.00 Fair CLR 71.6 60.8 69% 29.92 0.0
01 09:35 SW 12 10.00 Fair CLR 69.8 60.8 73% 29.91 0.0
01 09:15 SW 10 10.00 Fair CLR 69.8 60.8 73% 29.91 0.0
01 08:55 SW 8 10.00 Fair CLR 68 60.8 78% 29.91 0.0
01 08:35 SW 10 10.00 Fair CLR 66.2 60.8 83% 29.91 0.0
01 08:15 SW 12 10.00 Fair CLR 64.4 60.8 88% 29.91 0.0
01 07:55 SW 13 10.00 Fair CLR 64.4 60.8 88% 29.91 0.0
01 07:35 SW 12 10.00 Fair CLR 64.4 59 83% 29.9 0.0
01 07:15 S 12 10.00 Fair CLR 62.6 60.8 94% 29.9 0.0
01 06:55 S 9 10.00 Fair CLR 62.6 60.8 94% 29.89 0.0
01 06:35 S 9 10.00 Fair CLR 62.6 60.8 94% 29.88 0.0
01 06:15 S 10 10.00 Fair CLR 62.6 60.8 94% 29.87 0.0
01 05:55 SW 8 10.00 Fair CLR 62.6 60.8 94% 29.87 0.0
01 05:35 SW 10 10.00 A Few Clouds FEW050 FEW055 62.6 60.8 94% 29.87 0.0
01 05:15 SW 12 10.00 A Few Clouds FEW049 FEW055 62.6 60.8 94% 29.86 0.0
01 04:55 SW 9 10.00 NULL NULL 62.6 60.8 94% 29.86 0.0
01 04:35 SW 12 10.00 NULL NULL 62.6 60.8 94% 29.86 0.0
01 04:15 SW 8 10.00 A Few Clouds FEW049 62.6 62.6 100% 29.86 0.0
01 03:55 SW 7 10.00 A Few Clouds FEW050 62.6 62.6 100% 29.86 0.0
01 03:35 SW 8 10.00 Fair CLR 64.4 62.6 94% 29.86 0.0
01 03:15 SW 9 10.00 Fair CLR 64.4 62.6 94% 29.86 0.0
01 02:55 SW 9 10.00 Fair CLR 64.4 62.6 94% 29.86 0.0
01 02:35 SW 9 10.00 Fair CLR 64.4 62.6 94% 29.87 0.0
01 02:15 SW 9 10.00 A Few Clouds FEW045 FEW050 64.4 64.4 100% 29.87 0.0
01 01:55 SW 5 10.00 A Few Clouds FEW038 FEW046 FEW050 64.4 64.4 100% 29.87 0.0
01 01:35 Calm 10.00 A Few Clouds FEW038 FEW046 64.4 64.4 100% 29.87 0.0
01 01:15 SW 3 10.00 Partly Cloudy FEW042 SCT048 64.4 64.4 100% 29.88 0.0
01 00:55 Calm 10.00 Partly Cloudy SCT043 SCT048 66.2 64.4 94% 29.87 0.0
01 00:35 Calm 10.00 A Few Clouds FEW045 66.2 64.4 94% 29.87 0.0
01 00:15 SW 3 10.00 Fair CLR 66.2 64.4 94% 29.87 0.0
31 23:55 SW 5 10.00 Fair CLR 66.2 64.4 94% 29.87 0.0
31 23:35 Calm 10.00 Fair CLR 68 64.4 88% 29.87 0.0
31 23:15 SW 5 10.00 Fair CLR 68 66.2 94% 29.87 0.0
31 22:55 S 5 10.00 Fair CLR 68 64.4 88% 29.86 0.0
31 22:35 Calm 10.00 Fair CLR 69.8 64.4 83% 29.86 0.0
31 22:20 Calm 10.00 Fair CLR 69.8 66.2 88% 29.85 0.0
31 21:55 Calm 10.00 Fair CLR 69.8 68 94% 29.86 0.0
31 21:35 Calm 10.00 Fair CLR 68 68 100% 29.85 0.0
31 21:15 SW 3 10.00 NULL NULL 68 68 100% 29.85 0.0
31 20:55 Calm 10.00 Fair CLR 0 0 0% 29.85 0.0
31 20:35 Calm 10.00 Fair CLR 68 66.2 94% 29.84 0.0
31 20:15 Calm 10.00 Fair CLR 66.2 66.2 100% 29.84 0.0
31 19:55 Calm 10.00 Fair CLR 68 66.2 94% 29.83 0.0
31 19:35 Calm 10.00 Fair CLR 66.2 66.2 100% 29.83 0.0
31 19:15 Calm 10.00 Fair CLR 68 66.2 94% 29.83 0.0
31 18:55 Calm 10.00 Fair CLR 66.2 66.2 100% 29.83 0.0
31 18:35 Calm 9.00 Fair CLR 68 66.2 94% 29.82 0.0
31 18:15 Calm 9.00 Fair CLR 66.2 66.2 100% 29.82 0.0
31 17:35 NE 5 9.00 Fair CLR 68 68 100% 29.82 0.0
31 17:15 E 5 8.00 Fair CLR 68 66.2 94% 29.82 0.0
31 16:55 Calm 8.00 Fair CLR 68 66.2 94% 29.82 0.0
31 16:35 E 3 8.00 Fair CLR 66.2 66.2 100% 29.82 0.0
31 16:15 Calm 6.00 Fog/Mist CLR 66.2 66.2 100% 29.82 0.0
31 15:55 NE 5 2.50 Fog/Mist SCT002 66.2 66.2 100% 29.82 0.0
31 15:35 NE 3 0.25 Light Rain Fog OVC002 66.2 64.4 94% 29.83 0.0
31 15:15 NE 5 0.25 Light Rain Fog OVC003 64.4 64.4 100% 29.82 0.0
31 14:55 NE 5 0.50 Light Rain Fog OVC003 64.4 64.4 100% 29.83 0.0
31 14:35 NE 6 0.50 Light Rain Fog OVC003 66.2 66.2 100% 29.83 0.0
31 14:15 E 6 1.75 Unknown Precip Fog/Mist OVC003 66.2 66.2 100% 29.83 0.0
31 13:55 NE 6 4.00 Fog/Mist OVC003 66.2 66.2 100% 29.83 0.0
31 13:35 NE 6 3.00 Fog/Mist BKN004 OVC022 66.2 66.2 100% 29.83 0.0
31 13:15 Vrbl 6 1.50 Unknown Precip Fog/Mist OVC004 66.2 64.4 94% 29.83 0.0
31 12:55 NE 6 0.50 Light Rain Fog/Mist OVC003 64.4 64.4 100% 29.83 0.0
31 12:35 E 7 0.75 Unknown Precip Fog/Mist OVC003 66.2 66.2 100% 29.82 0.0
31 12:15 NE 6 0.50 Unknown Precip Fog/Mist OVC003 64.4 64.4 100% 29.83 0.0
31 11:55 NE 7 0.50 Unknown Precip Fog OVC003 66.2 66.2 100% 29.83 0.0
31 11:35 NE 6 0.25 Light Rain Fog OVC003 66.2 66.2 100% 29.82 0.0
31 11:15 E 5 0.75 Fog/Mist OVC003 66.2 66.2 100% 29.82 0.0
31 10:55 Calm 1.25 Fog/Mist OVC003 66.2 66.2 100% 29.82 0.0
31 10:35 Calm 2.50 Fog/Mist OVC003 66.2 66.2 100% 29.81 0.0
31 10:15 Calm 3.00 Fog/Mist OVC003 66.2 66.2 100% 29.8 0.0
31 09:55 Calm 3.00 Fog/Mist OVC003 66.2 66.2 100% 29.8 0.0
31 09:35 Calm 3.00 Fog/Mist OVC004 64.4 64.4 100% 29.79 0.0
31 09:15 Calm 2.00 Fog/Mist OVC003 64.4 64.4 100% 29.79 0.0
31 08:55 Calm 1.75 Fog/Mist OVC003 64.4 64.4 100% 29.78 0.0
31 08:35 E 6 1.25 Fog/Mist OVC003 64.4 64.4 100% 29.78 0.0
31 08:15 E 6 1.00 Fog/Mist OVC003 64.4 64.4 100% 29.78 0.0
31 07:55 Calm 1.00 Unknown Precip Fog/Mist OVC002 64.4 64.4 100% 29.79 0.0
31 07:35 E 7 0.75 Unknown Precip Fog/Mist OVC003 62.6 62.6 100% 29.79 0.0
31 07:15 E 8 1.50 Fog/Mist OVC003 62.6 62.6 100% 29.78 0.0
31 06:55 NE 9 4.00 Fog/Mist OVC003 62.6 62.6 100% 29.78 0.0
31 06:35 NE 12 5.00 Fog/Mist OVC003 62.6 62.6 100% 29.77 0.0
31 06:15 NE 7 7.00 Overcast OVC003 62.6 62.6 100% 29.77 0.0
31 05:55 E 6 6.00 Fog/Mist OVC003 62.6 62.6 100% 29.76 0.0
31 05:35 NE 7 6.00 Fog/Mist OVC005 64.4 64.4 100% 29.77 0.0
31 05:15 Vrbl 6 G 14 6.00 Fog/Mist NULL 64.4 64.4 100% 29.77 0.0
31 04:55 E 9 G 23 6.00 Thunderstorm in Vicinity Unknown Precip Fog/Mist NULL 62.6 62.6 100% 29.77 0.0 0.01
31 04:35 Calm 5.00 Thunderstorm in Vicinity Rain Fog/Mist NULL 62.6 62.6 100% 29.79 0.0
31 04:15 NE 15 G 22 9.00 Thunderstorm in Vicinity OVC004 62.6 62.6 100% 29.78 0.0
31 03:55 NE 17 7.00 Overcast OVC003 62.6 62.6 100% 29.77 0.0
31 03:35 NE 14 3.00 Fog/Mist OVC003 62.6 62.6 100% 29.77 0.0
Date Time (cdt) Wind (mph) Vis. (mi.) Weather Sky Cond. Air Dwpt Max. Min. Relative Humidity Wind Chill (°F) Heat Index (°F) altimeter (in) sea level (mb) 1 hr 3 hr 6 hr
6 hour
Temperature (ºF) Pressure Precipitation (in)